This is the latest recevied weather packets stored in our database for station/object DO7CRZ-12. If no packets are shown the sender has not sent any weather packets the latest 10 day(s).
| Time | Temp. | Humidity | Pressure | Rain* | Wind** | Luminosity | Snow |
|---|---|---|---|---|---|---|---|
| 1777806443 | 27.22° C | 18% | 1014.8 hPa | 0 mm | - | 659 W/m² | - |
| 1777805840 | 27.22° C | 17% | 1015 hPa | 0 mm | - | 666 W/m² | - |
| 1777805237 | 27.78° C | 17% | 1014.9 hPa | 0 mm | - | 684 W/m² | - |
| 1777804650 | 27.78° C | 18% | 1015 hPa | 0 mm | - | 678 W/m² | - |
| 1777804047 | 27.22° C | 17% | 1015.2 hPa | 0 mm | - | 678 W/m² | - |
| 1777803444 | 26.67° C | 19% | 1015.2 hPa | 0 mm | - | 645 W/m² | - |
| 1777802841 | 26.11° C | 19% | 1015.3 hPa | 0 mm | - | 636 W/m² | - |
| 1777802238 | 26.67° C | 19% | 1015.4 hPa | 0 mm | - | 613 W/m² | - |
| 1777801047 | 25.56° C | 20% | 1015.5 hPa | 0 mm | - | 496 W/m² | - |
| 1777800444 | 26.11° C | 20% | 1015.5 hPa | 0 mm | - | 498 W/m² | - |
| 1777799842 | 26.11° C | 21% | 1015.6 hPa | 0 mm | - | 539 W/m² | - |
| 1777799238 | 26.11° C | 21% | 1015.6 hPa | 0 mm | - | 533 W/m² | - |
| 1777798636 | 26.67° C | 21% | 1015.6 hPa | 0 mm | - | 524 W/m² | - |
| 1777798048 | 25.56° C | 23% | 1015.6 hPa | 0 mm | - | 506 W/m² | - |
| 1777797445 | 25° C | 23% | 1015.7 hPa | 0 mm | - | 495 W/m² | - |
| 1777796842 | 24.44° C | 24% | 1015.7 hPa | 0 mm | - | 465 W/m² | - |
| 1777796240 | 23.33° C | 25% | 1015.7 hPa | 0 mm | - | 410 W/m² | - |
| 1777795636 | 22.22° C | 23% | 1015.8 hPa | 0 mm | - | 344 W/m² | - |
| 1777795048 | 21.11° C | 27% | 1015.8 hPa | 0 mm | - | 58 W/m² | - |
| 1777794446 | 20.56° C | 28% | 1015.8 hPa | 0 mm | - | 52 W/m² | - |
| 1777793240 | 20° C | 30% | 1015.7 hPa | 0 mm | - | 47 W/m² | - |
| 1777792637 | 20° C | 31% | 1015.6 hPa | 0 mm | - | 47 W/m² | - |
| 1777792049 | 20° C | 32% | 1015.7 hPa | 0 mm | - | 48 W/m² | - |
| 1777791446 | 19.44° C | 32% | 1015.8 hPa | 0 mm | - | 48 W/m² | - |
| 1777790843 | 19.44° C | 32% | 1015.8 hPa | 0 mm | - | 48 W/m² | - |
* Rain latest hour (hover to see other rain measurements)
** Current wind speed in m/s (hover to see current wind gust speed)